Time;durP1;ratioP1;P1;durP2;ratioP2;P2;SDS_P1;SDS_P2;PMS_P1;PMS_P2;Temp;Humidity;BMP_temperature;BMP_pressure;BME280_temperature;BME280_humidity;BME280_pressure;Samples;Min_cycle;Max_cycle;Signal;HPM_P1;HPM_P2
2024/01/11 00:02:04;;;;;;;195.93;71.88;;;-9.00;76.10;;;;;;2602731;54;20030;31
2024/01/11 00:04:40;;;;;;;200.50;74.50;;;-9.00;75.00;;;;;;2602612;54;20883;31
2024/01/11 00:07:19;;;;;;;183.20;70.15;;;-9.10;82.30;;;;;;2620429;46;20254;31
2024/01/11 00:09:53;;;;;;;197.93;73.55;;;-9.10;86.20;;;;;;2620920;46;21150;31
2024/01/11 00:12:28;;;;;;;200.82;75.55;;;-9.10;88.30;;;;;;2602484;54;20026;31
2024/01/11 00:15:04;;;;;;;182.35;67.47;;;-9.10;91.60;;;;;;2602638;54;20137;31
2024/01/11 00:17:39;;;;;;;179.35;72.40;;;-9.10;85.00;;;;;;2602662;54;20029;31
2024/01/11 00:20:15;;;;;;;209.27;76.88;;;-9.10;84.40;;;;;;2620963;46;20098;31
2024/01/11 00:22:54;;;;;;;188.15;73.53;;;-9.00;91.10;;;;;;2621027;46;20027;31
2024/01/11 00:25:29;;;;;;;192.30;69.93;;;-9.10;90.10;;;;;;2602172;54;20030;31
2024/01/11 00:28:05;;;;;;;184.85;70.90;;;-9.00;84.40;;;;;;2620997;46;20045;31
2024/01/11 00:30:42;;;;;;;;;;;-9.10;83.20;;;;;;2602778;54;20963;31
2024/01/11 00:33:19;;;;;;;178.20;68.17;;;-9.10;83.40;;;;;;2602654;54;19935;31
2024/01/11 00:35:56;;;;;;;177.37;73.93;;;-9.10;82.30;;;;;;2602377;47;20841;31
2024/01/11 00:38:33;;;;;;;189.35;71.45;;;;;;;;;;2602323;54;20638;31
2024/01/11 00:41:08;;;;;;;201.80;70.53;;;-9.10;82.60;;;;;;2601944;54;20897;31
2024/01/11 00:43:44;;;;;;;194.90;71.75;;;-9.10;82.60;;;;;;2602411;54;20876;31
2024/01/11 00:46:19;;;;;;;189.40;71.65;;;-9.10;80.70;;;;;;2602315;54;20080;31
2024/01/11 00:48:53;;;;;;;192.07;72.87;;;-9.10;81.70;;;;;;2602287;54;21176;31
2024/01/11 00:51:30;;;;;;;190.45;74.45;;;-9.20;83.40;;;;;;2602406;54;20031;31
2024/01/11 00:54:09;;;;;;;209.40;80.35;;;-9.20;87.30;;;;;;2602211;54;20885;31
2024/01/11 00:56:44;;;;;;;208.95;77.80;;;-9.20;90.50;;;;;;2648874;39;20294;31
2024/01/11 00:59:20;;;;;;;214.77;83.53;;;-9.20;91.30;;;;;;2700719;39;20400;31
2024/01/11 01:01:55;;;;;;;262.30;90.25;;;-9.20;90.90;;;;;;2602106;54;20804;31
2024/01/11 01:04:30;;;;;;;251.80;94.45;;;-9.20;92.00;;;;;;2602254;54;20916;31
2024/01/11 01:07:06;;;;;;;242.73;85.13;;;-9.20;90.60;;;;;;2602425;54;20922;31
2024/01/11 01:09:44;;;;;;;216.00;81.72;;;-9.20;90.60;;;;;;2602381;54;20038;31
2024/01/11 01:12:19;;;;;;;230.73;82.73;;;-9.20;89.00;;;;;;2602381;54;20872;31
2024/01/11 01:14:55;;;;;;;164.30;63.55;;;-9.20;86.20;;;;;;2621115;47;21074;31
2024/01/11 01:17:30;;;;;;;;;;;-9.20;86.00;;;;;;2602422;54;20027;31
2024/01/11 01:20:08;;;;;;;184.00;69.70;;;-9.20;80.90;;;;;;2603185;54;20740;31
2024/01/11 01:22:43;;;;;;;188.00;71.85;;;-9.20;82.00;;;;;;2603050;54;20095;31
2024/01/11 01:25:24;;;;;;;204.00;71.15;;;-9.20;77.40;;;;;;2603256;54;20027;31
2024/01/11 01:28:00;;;;;;;182.35;73.95;;;-9.30;73.80;;;;;;2621498;46;20038;31
2024/01/11 01:30:38;;;;;;;194.75;72.47;;;-9.30;71.80;;;;;;2621489;46;20030;31
2024/01/11 01:33:14;;;;;;;174.80;68.37;;;-9.30;75.90;;;;;;2621385;46;20031;31
2024/01/11 01:35:49;;;;;;;;;;;-9.30;76.10;;;;;;2603288;54;20033;31
2024/01/11 01:38:25;;;;;;;198.07;67.78;;;-9.40;74.00;;;;;;2621277;46;20755;31
2024/01/11 01:41:04;;;;;;;196.15;72.28;;;-9.40;69.10;;;;;;2602907;54;20880;31
2024/01/11 01:43:40;;;;;;;183.75;71.82;;;-9.40;76.10;;;;;;2603108;54;20878;31
2024/01/11 01:46:17;;;;;;;;;;;-9.40;80.10;;;;;;2603027;54;20057;31
2024/01/11 01:48:52;;;;;;;;;;;-9.40;82.40;;;;;;2621839;46;19987;31
2024/01/11 01:53:57;;;;;;;189.40;69.80;;;-9.50;86.40;;;;;;2603265;54;20030;31
2024/01/11 01:56:36;;;;;;;188.38;73.47;;;-9.60;91.80;;;;;;2603070;54;20050;31
2024/01/11 01:59:13;;;;;;;179.75;72.65;;;-9.50;92.20;;;;;;2603037;54;20050;31
2024/01/11 02:01:51;;;;;;;204.65;74.45;;;-9.50;94.50;;;;;;2602919;54;20906;31
2024/01/11 02:04:27;;;;;;;199.85;72.05;;;-9.50;94.80;;;;;;2602231;54;21584;31
2024/01/11 02:07:03;;;;;;;195.55;71.30;;;-9.50;93.40;;;;;;2603066;54;20092;31
2024/01/11 02:09:39;;;;;;;185.53;65.50;;;-9.50;92.20;;;;;;2602188;54;20100;31
2024/01/11 02:12:17;;;;;;;181.10;67.05;;;-9.40;91.00;;;;;;2639754;39;21332;31
2024/01/11 02:14:53;;;;;;;179.15;66.15;;;-9.50;88.20;;;;;;2602845;54;20386;31
2024/01/11 02:17:28;;;;;;;170.77;65.07;;;-9.50;84.20;;;;;;2602869;54;20129;31
2024/01/11 02:20:04;;;;;;;178.43;66.22;;;-9.50;79.40;;;;;;2621210;46;20026;31
2024/01/11 02:22:39;;;;;;;181.75;70.45;;;-9.50;79.20;;;;;;2602790;54;20494;31
2024/01/11 02:25:18;;;;;;;190.27;70.55;;;-9.50;89.00;;;;;;2621196;46;20057;31
2024/01/11 02:27:53;;;;;;;175.57;67.50;;;-9.50;88.50;;;;;;2602649;54;21197;31
2024/01/11 02:30:27;;;;;;;175.60;63.97;;;-9.50;87.60;;;;;;2602845;54;20878;31
2024/01/11 02:33:03;;;;;;;188.23;69.75;;;-9.50;83.10;;;;;;2602794;54;20030;31
2024/01/11 02:35:41;;;;;;;159.85;64.70;;;-9.50;79.10;;;;;;2603004;54;20036;31
2024/01/11 02:38:18;;;;;;;182.13;68.47;;;-9.60;81.80;;;;;;2603035;54;20983;31
2024/01/11 02:40:56;;;;;;;220.70;77.90;;;-9.60;85.30;;;;;;2602650;54;21351;31
2024/01/11 02:43:32;;;;;;;200.38;75.90;;;-9.60;92.70;;;;;;2602669;54;20357;31
2024/01/11 02:46:07;;;;;;;206.02;78.43;;;-9.60;96.20;;;;;;2621272;46;20073;31
2024/01/11 02:48:42;;;;;;;202.65;74.32;;;-9.70;97.20;;;;;;2603097;54;20837;31
2024/01/11 02:51:18;;;;;;;197.63;74.17;;;-9.60;98.30;;;;;;2701517;39;21476;31
2024/01/11 02:53:54;;;;;;;;;;;-9.60;93.40;;;;;;2602953;54;21090;31
2024/01/11 02:56:33;;;;;;;189.73;69.03;;;-9.70;94.90;;;;;;2602664;54;20062;31
2024/01/11 02:59:09;;;;;;;201.68;71.55;;;-9.70;87.90;;;;;;2602671;54;20162;31
2024/01/11 03:01:43;;;;;;;200.75;71.53;;;-9.60;85.50;;;;;;2602750;54;21079;31
2024/01/11 03:04:19;;;;;;;190.18;68.10;;;-9.70;87.70;;;;;;2602842;54;19934;31
2024/01/11 03:06:54;;;;;;;197.05;67.88;;;-9.60;83.70;;;;;;2602797;54;20140;31
2024/01/11 03:09:31;;;;;;;175.87;63.07;;;-9.60;84.40;;;;;;2602510;54;20883;31
2024/01/11 03:12:12;;;;;;;202.35;73.60;;;-9.60;79.40;;;;;;2621368;46;20775;31
2024/01/11 03:14:46;;;;;;;178.90;66.03;;;-9.60;85.80;;;;;;2602704;54;20803;31
2024/01/11 03:17:22;;;;;;;181.88;70.97;;;-9.60;89.70;;;;;;2602070;54;21312;31
2024/01/11 03:19:59;;;;;;;206.20;73.70;;;-9.70;92.70;;;;;;2602753;54;19961;31
2024/01/11 03:22:35;;;;;;;196.05;69.72;;;-9.60;91.60;;;;;;2621405;46;20026;31
2024/01/11 03:25:11;;;;;;;189.32;67.85;;;-9.60;90.90;;;;;;2621060;46;20057;31
2024/01/11 03:27:51;;;;;;;177.48;64.13;;;-9.60;93.10;;;;;;2602643;54;20030;31
2024/01/11 03:30:26;;;;;;;176.00;67.93;;;-9.60;93.40;;;;;;2602699;54;20089;31
2024/01/11 03:33:02;;;;;;;188.15;67.25;;;-9.60;91.70;;;;;;2602526;54;20877;31
2024/01/11 03:35:38;;;;;;;167.00;60.30;;;-9.60;92.90;;;;;;2602641;54;20031;31
2024/01/11 03:38:15;;;;;;;145.33;60.30;;;-9.60;90.30;;;;;;2602447;54;20042;31
2024/01/11 03:40:50;;;;;;;161.90;58.65;;;-9.60;90.10;;;;;;2602535;54;20942;31
2024/01/11 03:43:28;;;;;;;166.47;66.03;;;-9.60;88.40;;;;;;2602748;54;20411;31
2024/01/11 03:46:03;;;;;;;161.57;63.33;;;-9.60;89.30;;;;;;2602605;54;20898;31
2024/01/11 03:48:39;;;;;;;156.40;60.60;;;-9.60;88.30;;;;;;2602447;54;20865;31
2024/01/11 03:51:14;;;;;;;178.67;62.50;;;-9.60;92.50;;;;;;2602355;54;20030;31
2024/01/11 03:53:51;;;;;;;178.77;61.97;;;-9.60;95.00;;;;;;2620841;46;20915;31
2024/01/11 03:56:27;;;;;;;181.77;63.60;;;-9.60;95.50;;;;;;2602658;54;20877;31
2024/01/11 03:59:05;;;;;;;161.73;60.13;;;-9.50;96.90;;;;;;2602337;54;20802;31
2024/01/11 04:01:42;;;;;;;168.48;58.55;;;;;;;;;;2608739;46;21137;31
2024/01/11 04:04:19;;;;;;;178.90;63.33;;;-9.50;92.10;;;;;;2601643;54;20900;31
2024/01/11 04:06:57;;;;;;;171.10;65.65;;;-9.50;92.40;;;;;;2602411;54;20094;31
2024/01/11 04:09:34;;;;;;;171.88;63.72;;;-9.50;93.10;;;;;;2610564;46;20028;31
2024/01/11 04:12:10;;;;;;;150.35;62.63;;;-9.50;95.10;;;;;;2620718;46;20026;31
2024/01/11 04:14:51;;;;;;;183.68;65.20;;;-9.50;95.50;;;;;;2602676;54;20787;31
2024/01/11 04:17:25;;;;;;;149.82;60.03;;;-9.50;93.50;;;;;;2620805;46;20054;31
2024/01/11 04:20:03;;;;;;;166.35;61.30;;;-9.50;91.60;;;;;;2669246;39;21402;31
2024/01/11 04:22:40;;;;;;;166.35;62.40;;;-9.40;90.50;;;;;;2602405;54;21528;31
2024/01/11 04:25:15;;;;;;;166.13;57.60;;;-9.60;91.70;;;;;;2602688;54;20026;31
2024/01/11 04:27:51;;;;;;;165.68;63.22;;;-9.30;92.40;;;;;;2601767;54;20994;31
2024/01/11 04:30:32;;;;;;;174.60;60.22;;;-9.50;91.90;;;;;;2602366;54;20900;31
2024/01/11 04:33:12;;;;;;;147.45;58.50;;;-9.60;92.80;;;;;;2621155;46;21124;31
2024/01/11 04:35:50;;;;;;;159.63;61.10;;;-9.60;95.20;;;;;;2602483;54;20888;31
2024/01/11 04:38:25;;;;;;;144.40;56.50;;;-9.60;97.00;;;;;;2602214;54;20420;31
2024/01/11 04:41:03;;;;;;;158.90;59.25;;;-9.50;96.20;;;;;;2602320;54;20896;31
2024/01/11 04:43:41;;;;;;;162.48;58.03;;;-9.50;96.30;;;;;;2602310;54;20157;31
2024/01/11 04:46:20;;;;;;;154.60;57.38;;;-9.50;96.40;;;;;;2602572;54;20038;31
2024/01/11 04:48:55;;;;;;;174.00;60.80;;;-9.50;95.30;;;;;;2602375;54;20125;31
2024/01/11 04:51:32;;;;;;;162.15;57.55;;;-9.40;96.10;;;;;;2620831;47;20954;31
2024/01/11 04:54:10;;;;;;;163.40;57.30;;;-9.50;97.40;;;;;;2603286;54;20109;31
2024/01/11 04:56:46;;;;;;;165.67;58.90;;;-9.30;99.70;;;;;;2603217;54;20034;31
2024/01/11 04:59:22;;;;;;;146.95;59.10;;;;;;;;;;2603237;54;20053;31
2024/01/11 05:02:04;;;;;;;153.23;59.53;;;-9.40;99.90;;;;;;2602291;54;20042;31
2024/01/11 05:04:39;;;;;;;147.43;56.73;;;-9.20;99.90;;;;;;2603329;54;20913;31
2024/01/11 05:07:12;;;;;;;154.27;57.60;;;-9.10;99.90;;;;;;2603389;54;21842;31
2024/01/11 05:09:49;;;;;;;151.77;58.22;;;-9.20;99.90;;;;;;2621402;46;20063;31
2024/01/11 05:12:26;;;;;;;151.00;56.95;;;-9.10;99.90;;;;;;2602948;54;20038;31
2024/01/11 05:15:00;;;;;;;160.73;57.25;;;-9.00;99.90;;;;;;2603187;54;20922;31
2024/01/11 05:17:39;;;;;;;126.00;48.30;;;-9.00;99.90;;;;;;2603039;54;20761;31
2024/01/11 05:20:15;;;;;;;141.40;55.63;;;-8.90;99.90;;;;;;2603423;54;20920;31
2024/01/11 05:22:51;;;;;;;156.40;57.80;;;-8.90;99.90;;;;;;2603183;54;20796;31
2024/01/11 05:25:25;;;;;;;144.75;55.90;;;-8.90;99.90;;;;;;2602991;54;20090;31
2024/01/11 05:28:01;;;;;;;153.32;57.28;;;-8.80;99.90;;;;;;2603056;54;20042;31
2024/01/11 05:30:37;;;;;;;154.35;56.10;;;-8.80;99.90;;;;;;2603151;54;20890;31
2024/01/11 05:33:16;;;;;;;138.35;52.08;;;-8.70;99.90;;;;;;2621513;46;20050;31
2024/01/11 05:35:53;;;;;;;137.95;51.33;;;-8.70;99.90;;;;;;2603119;54;20098;31
2024/01/11 05:38:25;;;;;;;138.20;50.42;;;-8.60;99.90;;;;;;2603297;54;21332;31
2024/01/11 05:41:01;;;;;;;131.65;50.80;;;-8.50;99.90;;;;;;2603068;54;20049;31
2024/01/11 05:43:36;;;;;;;114.87;44.77;;;-8.50;99.90;;;;;;2602950;54;20940;31
2024/01/11 05:46:12;;;;;;;132.18;48.38;;;-8.40;99.90;;;;;;2621614;46;20297;31
2024/01/11 05:49:05;;;;;;;137.98;48.72;;;-8.30;99.90;;;;;;2603266;54;20902;31
2024/01/11 05:51:40;;;;;;;122.70;44.58;;;-8.20;99.90;;;;;;2621586;46;20034;31
2024/01/11 05:54:15;;;;;;;118.47;44.38;;;-8.10;99.90;;;;;;2602783;54;20900;31
2024/01/11 05:56:55;;;;;;;115.07;43.83;;;-8.00;99.90;;;;;;2603267;54;20874;31
2024/01/11 05:59:29;;;;;;;108.75;41.15;;;-7.90;99.90;;;;;;2602325;54;21770;31
2024/01/11 06:02:04;;;;;;;105.10;41.15;;;-7.90;99.90;;;;;;2603306;54;20026;31
2024/01/11 06:04:43;;;;;;;107.03;40.65;;;-7.90;99.90;;;;;;2602933;54;20054;31
2024/01/11 06:07:22;;;;;;;104.73;40.33;;;-7.80;99.90;;;;;;2603237;54;20822;31
2024/01/11 06:09:58;;;;;;;117.53;41.33;;;-7.70;99.90;;;;;;2621134;46;20238;31
2024/01/11 06:12:32;;;;;;;99.95;41.10;;;-7.60;99.90;;;;;;2603067;54;21080;31
2024/01/11 06:15:11;;;;;;;108.25;39.30;;;-7.50;99.90;;;;;;2602938;54;20965;31
2024/01/11 06:17:48;;;;;;;108.18;39.00;;;-7.50;99.90;;;;;;2602230;54;20083;31
2024/01/11 06:20:26;;;;;;;102.65;37.72;;;-7.40;99.90;;;;;;2603096;54;20872;31
2024/01/11 06:23:07;;;;;;;84.17;34.43;;;-7.40;99.90;;;;;;2602262;54;20737;31
2024/01/11 06:25:43;;;;;;;94.30;37.43;;;-7.30;99.90;;;;;;2621341;46;20828;31
2024/01/11 06:28:18;;;;;;;105.57;35.90;;;-7.30;99.90;;;;;;2603113;54;20080;31
2024/01/11 06:30:53;;;;;;;87.20;35.05;;;-7.20;99.90;;;;;;2764468;31;20031;31
2024/01/11 06:33:28;;;;;;;86.65;36.28;;;-7.20;99.90;;;;;;2602969;54;20022;31
2024/01/11 06:36:06;;;;;;;94.53;33.70;;;-7.20;99.90;;;;;;2603317;54;20085;31
2024/01/11 06:38:41;;;;;;;89.85;33.00;;;-7.20;99.90;;;;;;2602967;54;20915;31
2024/01/11 06:41:15;;;;;;;79.72;31.65;;;-7.10;99.90;;;;;;2603170;54;20876;31
2024/01/11 06:43:51;;;;;;;95.78;35.67;;;-7.10;99.90;;;;;;2603202;54;20022;31
2024/01/11 06:46:25;;;;;;;80.95;32.05;;;-7.00;99.90;;;;;;2603102;54;20913;31
2024/01/11 06:48:59;;;;;;;91.20;34.20;;;-7.00;99.90;;;;;;2602731;54;20790;31
2024/01/11 06:51:38;;;;;;;93.15;34.75;;;-7.10;99.90;;;;;;2764774;31;20079;31
2024/01/11 06:54:13;;;;;;;88.28;34.03;;;-7.00;99.90;;;;;;2602788;54;20117;31
2024/01/11 06:56:48;;;;;;;89.05;34.58;;;-6.90;99.90;;;;;;2602995;54;20034;31
2024/01/11 06:59:23;;;;;;;95.87;35.27;;;-7.00;99.90;;;;;;2602851;54;20053;31
2024/01/11 07:02:00;;;;;;;92.20;33.58;;;-6.80;99.90;;;;;;2602899;54;20153;31
2024/01/11 07:04:35;;;;;;;87.40;32.13;;;-6.80;99.90;;;;;;2602588;54;20117;31
2024/01/11 07:07:13;;;;;;;69.65;29.00;;;-6.70;99.90;;;;;;2602946;54;20030;31
2024/01/11 07:09:48;;;;;;;71.95;28.85;;;-6.60;99.90;;;;;;2602856;54;20859;31
2024/01/11 07:12:23;;;;;;;78.53;29.13;;;-6.70;99.90;;;;;;2602991;54;20073;31
2024/01/11 07:14:59;;;;;;;87.18;29.13;;;-6.60;99.90;;;;;;2621480;46;20124;31
2024/01/11 07:17:33;;;;;;;;;;;-6.60;99.90;;;;;;2602865;54;20125;31
2024/01/11 07:20:10;;;;;;;65.47;25.55;;;-6.50;99.90;;;;;;2602990;54;19934;31
2024/01/11 07:22:49;;;;;;;74.50;28.08;;;-6.50;99.90;;;;;;2603106;54;20794;31
2024/01/11 07:25:26;;;;;;;70.20;27.02;;;-6.50;99.90;;;;;;2602948;54;20030;31
2024/01/11 07:27:58;;;;;;;66.43;27.90;;;-6.40;98.70;;;;;;2701732;39;22320;31
2024/01/11 07:30:33;;;;;;;80.88;29.08;;;-6.40;98.50;;;;;;2602751;54;20270;31
2024/01/11 07:33:09;;;;;;;76.05;28.60;;;-6.30;98.10;;;;;;2603089;54;20064;31
2024/01/11 07:35:45;;;;;;;70.65;28.30;;;-6.30;97.40;;;;;;2701386;39;20424;31
2024/01/11 07:38:23;;;;;;;68.93;26.38;;;-6.30;95.70;;;;;;2603263;54;20027;31
2024/01/11 07:40:58;;;;;;;79.63;26.45;;;-6.30;95.80;;;;;;2603091;54;20792;31
2024/01/11 07:43:35;;;;;;;73.05;25.55;;;-6.30;96.70;;;;;;2603023;54;20771;31
2024/01/11 07:46:29;;;;;;;65.78;27.17;;;-6.30;96.10;;;;;;2602916;54;20038;31
2024/01/11 07:49:15;;;;;;;75.97;27.60;;;-6.20;96.20;;;;;;2602817;54;20154;31
2024/01/11 07:51:50;;;;;;;66.40;26.20;;;-6.20;95.70;;;;;;2602873;54;20030;31
2024/01/11 07:54:28;;;;;;;81.25;27.60;;;-6.20;96.40;;;;;;2602821;54;20822;31
2024/01/11 07:57:03;;;;;;;68.43;25.98;;;-6.20;96.70;;;;;;2602934;54;20056;31
2024/01/11 07:59:39;;;;;;;62.95;26.05;;;-6.20;97.30;;;;;;2602859;54;20084;31
2024/01/11 08:02:15;;;;;;;68.63;25.07;;;-6.10;96.50;;;;;;2602599;54;20948;31
2024/01/11 08:04:50;;;;;;;73.85;27.52;;;-6.00;96.60;;;;;;2621312;46;20061;31
2024/01/11 08:07:27;;;;;;;66.73;24.73;;;-5.90;96.80;;;;;;2602703;54;20862;31
2024/01/11 08:10:06;;;;;;;60.45;24.92;;;-5.80;97.00;;;;;;2602788;54;20101;31
2024/01/11 08:12:42;;;;;;;59.03;24.67;;;-5.70;95.00;;;;;;2602769;54;20897;31
2024/01/11 08:15:17;;;;;;;;;;;-5.50;94.50;;;;;;2621449;46;20250;31
2024/01/11 08:17:53;;;;;;;60.22;24.58;;;-5.30;94.30;;;;;;2602723;54;19972;31
2024/01/11 08:20:28;;;;;;;53.88;21.08;;;-5.10;90.10;;;;;;2602833;54;20026;31
2024/01/11 08:23:03;;;;;;;63.25;25.30;;;-5.00;85.60;;;;;;2602925;54;20842;31
2024/01/11 08:25:41;;;;;;;59.70;22.43;;;-4.90;89.50;;;;;;2619818;46;20043;31
2024/01/11 08:28:14;;;;;;;67.30;25.40;;;-4.70;90.90;;;;;;2620012;46;21954;31
2024/01/11 08:30:49;;;;;;;62.55;24.25;;;-4.50;83.40;;;;;;2622829;39;20366;31
2024/01/11 08:33:24;;;;;;;56.35;23.45;;;-4.70;80.20;;;;;;2602355;54;20847;31
2024/01/11 08:36:03;;;;;;;59.53;23.83;;;-4.60;80.00;;;;;;2602439;54;20030;31
2024/01/11 08:38:38;;;;;;;49.95;22.30;;;-4.60;87.40;;;;;;2620798;46;20109;31
2024/01/11 08:41:19;;;;;;;56.00;22.60;;;-4.60;83.10;;;;;;2602164;54;21469;31
2024/01/11 08:43:54;;;;;;;61.90;22.60;;;-4.60;81.00;;;;;;2602415;54;20072;31
2024/01/11 08:46:31;;;;;;;47.63;20.15;;;-4.50;81.80;;;;;;2602541;54;20053;31
2024/01/11 08:49:07;;;;;;;53.60;19.85;;;-4.50;85.70;;;;;;2602494;54;20144;31
2024/01/11 08:51:42;;;;;;;50.25;19.75;;;-4.40;81.20;;;;;;2602290;54;20050;31
2024/01/11 08:54:20;;;;;;;48.08;20.17;;;-4.40;83.00;;;;;;2602405;54;20026;31
2024/01/11 08:56:58;;;;;;;48.20;21.25;;;-4.30;81.70;;;;;;2602776;54;20859;31
2024/01/11 08:59:34;;;;;;;51.50;20.40;;;-4.20;79.00;;;;;;2620829;47;20030;31
2024/01/11 09:02:10;;;;;;;44.60;19.80;;;-4.20;76.90;;;;;;2602696;54;20036;31
2024/01/11 09:04:53;;;;;;;46.55;18.60;;;-4.20;73.10;;;;;;2602543;54;20811;31
2024/01/11 09:07:28;;;;;;;50.53;18.38;;;-4.10;72.80;;;;;;2602378;54;20033;31
2024/01/11 09:10:03;;;;;;;42.13;18.20;;;-4.10;70.60;;;;;;2602451;54;20037;31
2024/01/11 09:12:41;;;;;;;45.05;20.13;;;-4.00;68.90;;;;;;2602651;54;20048;31
2024/01/11 09:15:17;;;;;;;42.50;16.90;;;-3.90;69.10;;;;;;2602532;54;20865;31
2024/01/11 09:17:52;;;;;;;44.80;18.02;;;-3.80;69.20;;;;;;2602307;54;20377;31
2024/01/11 09:20:28;;;;;;;45.00;18.15;;;-3.70;68.40;;;;;;2620991;47;20846;31
2024/01/11 09:23:03;;;;;;;44.53;17.80;;;-3.60;66.00;;;;;;2700835;39;21495;31
2024/01/11 09:25:38;;;;;;;38.95;17.88;;;-3.60;62.70;;;;;;2602821;54;20037;31
2024/01/11 09:28:16;;;;;;;46.85;17.92;;;-3.50;64.20;;;;;;2602416;54;20937;31
2024/01/11 09:30:51;;;;;;;40.42;18.67;;;-3.50;58.80;;;;;;2620084;47;20027;31
2024/01/11 09:33:26;;;;;;;55.80;19.02;;;-3.40;59.20;;;;;;2602513;54;20761;31
2024/01/11 09:36:02;;;;;;;46.77;19.63;;;-3.40;56.20;;;;;;2602299;54;20894;31
2024/01/11 09:38:37;;;;;;;49.28;18.00;;;-3.30;57.80;;;;;;2602553;54;20947;31
2024/01/11 09:41:17;;;;;;;49.70;18.20;;;-3.30;53.50;;;;;;2603181;54;20403;31
2024/01/11 09:43:57;;;;;;;49.58;19.17;;;-3.20;54.80;;;;;;2603222;54;20026;31
2024/01/11 09:46:35;;;;;;;44.92;19.95;;;-3.20;52.60;;;;;;2603205;54;20034;31
2024/01/11 09:49:10;;;;;;;48.00;17.00;;;-3.10;52.00;;;;;;2701481;39;20398;31
2024/01/11 09:51:45;;;;;;;37.22;15.95;;;-3.10;46.70;;;;;;2603273;54;20034;31
2024/01/11 09:54:21;;;;;;;44.58;19.58;;;-3.00;44.50;;;;;;2603283;54;20878;31
2024/01/11 09:56:57;;;;;;;44.15;18.35;;;-3.00;46.90;;;;;;2603262;54;20760;31
2024/01/11 09:59:36;;;;;;;45.35;19.65;;;-2.90;44.10;;;;;;2603195;54;20037;31
2024/01/11 10:02:15;;;;;;;43.28;18.10;;;-2.80;44.20;;;;;;2701704;39;21319;31
2024/01/11 10:04:52;;;;;;;37.97;17.52;;;-2.80;39.70;;;;;;2621560;46;20030;31
2024/01/11 10:07:28;;;;;;;38.97;17.33;;;-2.70;40.90;;;;;;2602453;54;20835;31
2024/01/11 10:10:07;;;;;;;43.13;16.40;;;-2.70;33.00;;;;;;2621340;46;20250;31
2024/01/11 10:12:48;;;;;;;40.78;18.10;;;-2.60;37.60;;;;;;2602818;54;20027;31
2024/01/11 10:15:29;;;;;;;36.90;17.05;;;-2.60;34.10;;;;;;2708458;39;21105;31
2024/01/11 10:18:10;;;;;;;37.57;15.60;;;-2.50;32.60;;;;;;2603290;54;20888;31
2024/01/11 10:20:46;;;;;;;45.53;17.30;;;-2.50;30.90;;;;;;2602969;54;20329;31
2024/01/11 10:23:28;;;;;;;45.92;17.77;;;-2.50;28.10;;;;;;2615360;46;20864;31
2024/01/11 10:26:07;;;;;;;36.50;13.80;;;-2.50;25.20;;;;;;2602944;54;20739;31
2024/01/11 10:28:47;;;;;;;37.22;16.67;;;-2.20;79.30;;;;;;2606329;46;20022;31
2024/01/11 10:31:28;;;;;;;33.80;16.42;;;-2.20;20.40;;;;;;2605155;46;20033;31
2024/01/11 10:34:08;;;;;;;40.47;16.92;;;-2.20;19.00;;;;;;2621722;46;20030;31
2024/01/11 10:36:45;;;;;;;33.72;14.73;;;-2.20;23.10;;;;;;2603193;54;20892;31
2024/01/11 10:39:20;;;;;;;38.40;16.33;;;-2.20;22.40;;;;;;2603066;54;20752;31
2024/01/11 10:42:01;;;;;;;35.28;16.35;;;-2.20;21.00;;;;;;2603231;54;20056;31
2024/01/11 10:44:38;;;;;;;43.95;15.82;;;-2.20;23.50;;;;;;2603200;54;20892;31
2024/01/11 10:47:18;;;;;;;34.70;15.45;;;-2.20;22.20;;;;;;2602958;54;20038;31
2024/01/11 10:52:31;;;;;;;43.90;16.42;;;-2.10;24.20;;;;;;2621429;46;20026;31
2024/01/11 10:55:09;;;;;;;42.60;15.00;;;-2.10;24.00;;;;;;2602253;54;20034;31
2024/01/11 10:57:48;;;;;;;33.05;14.80;;;-2.10;24.10;;;;;;2603192;54;20118;31
2024/01/11 11:00:23;;;;;;;37.38;15.07;;;-2.00;22.70;;;;;;2603069;54;20919;31
2024/01/11 11:03:04;;;;;;;38.15;15.10;;;-2.00;20.90;;;;;;2621683;46;20030;31
2024/01/11 11:05:41;;;;;;;43.15;15.95;;;-2.00;22.40;;;;;;2602776;54;20757;31
2024/01/11 11:08:17;;;;;;;41.38;14.82;;;-1.90;25.40;;;;;;2621099;46;20085;31
2024/01/11 11:11:01;;;;;;;38.90;15.20;;;-1.90;26.60;;;;;;2621348;46;20033;31
2024/01/11 11:13:41;;;;;;;45.65;16.80;;;-1.90;25.00;;;;;;2603210;54;20030;31
2024/01/11 11:16:19;;;;;;;37.47;16.30;;;-1.90;25.40;;;;;;2602853;54;21005;31
2024/01/11 11:19:00;;;;;;;42.20;17.55;;;-1.80;26.00;;;;;;2611042;46;20105;31
2024/01/11 11:21:40;;;;;;;40.07;18.10;;;-1.70;27.30;;;;;;2603059;54;20874;31
2024/01/11 11:24:18;;;;;;;45.08;17.67;;;-1.70;31.30;;;;;;2602839;54;20239;31
2024/01/11 11:26:57;;;;;;;40.30;17.25;;;-1.60;25.80;;;;;;2602944;54;20914;31
2024/01/11 11:29:37;;;;;;;40.58;16.02;;;-1.60;25.80;;;;;;2621182;46;20200;31
2024/01/11 11:32:16;;;;;;;42.17;14.93;;;-1.60;17.90;;;;;;2602943;54;20038;31
2024/01/11 11:34:56;;;;;;;41.38;15.93;;;-1.40;34.20;;;;;;2621667;46;20907;31
2024/01/11 11:37:32;;;;;;;34.00;14.05;;;-1.30;15.90;;;;;;2602884;54;20030;31
2024/01/11 11:40:08;;;;;;;;;;;-1.40;13.40;;;;;;2602237;54;20858;31
2024/01/11 11:42:45;;;;;;;36.23;15.13;;;-1.30;11.10;;;;;;2603091;54;19934;31
2024/01/11 11:45:26;;;;;;;37.42;15.02;;;-1.30;11.80;;;;;;2621332;46;22366;31
2024/01/11 11:48:01;;;;;;;34.45;15.85;;;-1.30;12.90;;;;;;2602952;54;20941;31
2024/01/11 11:50:41;;;;;;;36.65;15.35;;;-1.30;13.10;;;;;;2602807;54;20890;31
2024/01/11 11:53:16;;;;;;;35.92;14.30;;;-1.30;12.40;;;;;;2602787;54;22368;31
2024/01/11 11:55:52;;;;;;;36.72;14.35;;;-1.40;10.90;;;;;;2602683;54;20037;31
2024/01/11 11:58:28;;;;;;;36.13;14.47;;;-1.40;13.60;;;;;;2602106;54;20026;31
2024/01/11 12:01:04;;;;;;;;;;;-1.30;14.60;;;;;;2620938;46;20987;31
2024/01/11 12:03:48;;;;;;;37.20;14.75;;;-1.30;13.70;;;;;;2602111;54;20001;31
2024/01/11 12:06:30;;;;;;;35.60;15.32;;;-1.30;15.20;;;;;;2602695;54;20069;31
2024/01/11 12:09:15;;;;;;;38.08;16.25;;;-1.30;17.00;;;;;;2602894;54;20824;31
2024/01/11 12:11:54;;;;;;;34.70;16.45;;;-1.30;18.90;;;;;;2701465;39;21483;31
2024/01/11 12:14:46;;;;;;;38.25;15.95;;;-1.30;20.40;;;;;;2701158;39;21461;31
2024/01/11 12:17:25;;;;;;;35.95;14.50;;;-1.20;22.70;;;;;;2602763;54;20890;31
2024/01/11 12:20:03;;;;;;;42.17;16.40;;;-1.20;22.00;;;;;;2602620;54;20827;31
2024/01/11 12:22:43;;;;;;;32.97;14.43;;;-1.10;18.30;;;;;;2602622;54;20031;31
2024/01/11 12:25:24;;;;;;;40.97;16.98;;;-1.10;20.10;;;;;;2602692;54;20081;31
2024/01/11 12:28:00;;;;;;;37.00;15.48;;;-1.20;21.80;;;;;;2602675;54;20827;31
2024/01/11 12:30:39;;;;;;;36.40;16.40;;;-1.20;21.00;;;;;;2602935;54;20908;31
2024/01/11 12:33:16;;;;;;;43.28;16.95;;;-1.20;23.90;;;;;;2621224;46;20239;31
2024/01/11 12:35:55;;;;;;;38.77;16.50;;;-1.10;23.80;;;;;;2602826;54;20902;31
2024/01/11 12:38:34;;;;;;;38.78;16.60;;;-1.20;23.80;;;;;;2601943;54;20234;31
2024/01/11 12:41:20;;;;;;;39.83;16.98;;;-1.10;30.00;;;;;;2602701;54;20026;31
2024/01/11 12:43:57;;;;;;;35.38;16.80;;;-1.10;27.10;;;;;;2602722;54;20054;31
2024/01/11 12:46:36;;;;;;;39.20;17.10;;;-1.20;26.00;;;;;;2602734;54;20873;31
2024/01/11 12:49:13;;;;;;;41.78;18.38;;;-1.20;26.70;;;;;;2602698;54;20081;31
2024/01/11 12:51:49;;;;;;;38.33;17.55;;;-1.30;27.60;;;;;;2602695;54;20799;31
2024/01/11 12:54:32;;;;;;;42.35;17.10;;;-1.30;27.40;;;;;;2620976;47;20093;31
2024/01/11 12:57:08;;;;;;;41.03;16.73;;;-1.30;32.20;;;;;;2602288;54;20037;31
2024/01/11 12:59:45;;;;;;;41.50;17.02;;;-1.30;34.00;;;;;;2602681;54;20922;31
2024/01/11 13:02:22;;;;;;;41.17;15.70;;;-1.30;37.10;;;;;;2620898;47;20947;31
2024/01/11 13:05:02;;;;;;;42.03;17.77;;;-1.30;37.90;;;;;;2602557;54;20245;31
2024/01/11 13:07:40;;;;;;;45.70;15.85;;;-1.30;41.60;;;;;;2621129;47;20027;31
2024/01/11 13:10:20;;;;;;;43.35;16.73;;;-1.20;45.00;;;;;;2602760;54;22343;31
2024/01/11 13:13:01;;;;;;;31.30;13.73;;;-1.20;50.30;;;;;;2601832;54;20031;31
2024/01/11 13:15:48;;;;;;;39.15;17.10;;;-1.10;52.10;;;;;;2603656;54;20038;31
2024/01/11 13:18:27;;;;;;;36.47;16.67;;;-1.10;55.60;;;;;;2603364;54;20076;31
2024/01/11 13:21:06;;;;;;;39.80;16.75;;;-1.00;58.00;;;;;;2602517;54;20298;31
2024/01/11 13:23:44;;;;;;;37.20;15.55;;;-1.10;59.10;;;;;;2602853;54;20037;31
2024/01/11 13:26:23;;;;;;;32.95;16.25;;;-1.10;61.80;;;;;;2603458;54;20915;31
2024/01/11 13:29:00;;;;;;;34.80;14.90;;;-1.10;61.10;;;;;;2603333;54;20030;31
2024/01/11 13:31:41;;;;;;;29.73;15.80;;;-1.10;62.90;;;;;;2621841;46;20893;31